Time;durP1;ratioP1;P1;durP2;ratioP2;P2;SDS_P1;SDS_P2;PMS_P1;PMS_P2;Temp;Humidity;BMP_temperature;BMP_pressure;BME280_temperature;BME280_humidity;BME280_pressure;Samples;Min_cycle;Max_cycle;Signal;HPM_P1;HPM_P2
2023/07/26 00:02:05;;;;;;;3.80;2.53;;;17.00;99.90;;;;;;5092632;28;20171;-82
2023/07/26 00:04:31;;;;;;;4.13;2.80;;;16.90;99.90;;;;;;5074421;28;20224;-82
2023/07/26 00:06:56;;;;;;;4.57;2.30;;;17.00;99.90;;;;;;5092199;28;20656;-83
2023/07/26 00:09:22;;;;;;;4.40;2.50;;;16.90;99.90;;;;;;5074278;28;20308;-83
2023/07/26 00:11:48;;;;;;;6.73;2.43;;;16.80;99.90;;;;;;5074080;28;20223;-83
2023/07/26 00:14:14;;;;;;;4.67;2.47;;;16.90;99.90;;;;;;5074336;28;20558;-83
2023/07/26 00:16:40;;;;;;;4.40;2.50;;;17.00;99.90;;;;;;5074591;28;20606;-82
2023/07/26 00:19:05;;;;;;;4.60;2.27;;;17.00;99.90;;;;;;5074537;28;20211;-82
2023/07/26 00:21:32;;;;;;;5.80;2.57;;;16.90;99.90;;;;;;5074300;28;20177;-82
2023/07/26 00:23:59;;;;;;;6.90;2.70;;;16.80;99.90;;;;;;5074208;28;20228;-82
2023/07/26 00:26:25;;;;;;;7.77;3.30;;;16.80;99.90;;;;;;5074198;28;20174;-83
2023/07/26 00:28:51;;;;;;;4.70;2.67;;;16.80;99.90;;;;;;5074432;28;20196;-83
2023/07/26 00:31:17;;;;;;;5.53;2.50;;;16.80;99.90;;;;;;5074080;28;20231;-82
2023/07/26 00:33:43;;;;;;;5.37;2.97;;;16.90;99.90;;;;;;5074012;28;20169;-83
2023/07/26 00:36:09;;;;;;;4.77;2.43;;;16.70;99.90;;;;;;5074012;28;20171;-82
2023/07/26 00:38:35;;;;;;;4.97;2.70;;;16.60;99.90;;;;;;5074379;28;20263;-82
2023/07/26 00:41:00;;;;;;;5.87;2.83;;;16.60;99.90;;;;;;5073523;28;20259;-82
2023/07/26 00:43:26;;;;;;;4.20;2.40;;;16.60;99.90;;;;;;5074553;28;20225;-83
2023/07/26 00:45:53;;;;;;;10.37;3.20;;;16.50;99.90;;;;;;5073181;28;20167;-83
2023/07/26 00:48:19;;;;;;;5.20;3.20;;;16.50;99.90;;;;;;5074138;28;20263;-82
2023/07/26 00:50:47;;;;;;;5.87;2.93;;;16.50;99.90;;;;;;5074000;28;20178;-82
2023/07/26 00:53:14;;;;;;;5.47;3.03;;;16.50;99.90;;;;;;5074394;28;20274;-83
2023/07/26 00:55:40;;;;;;;5.40;2.93;;;16.30;99.90;;;;;;5074200;28;20645;-82
2023/07/26 00:58:06;;;;;;;4.43;2.63;;;16.30;99.90;;;;;;5074354;28;20177;-84
2023/07/26 01:00:32;;;;;;;6.30;3.23;;;16.20;99.90;;;;;;5073797;28;20190;-83
2023/07/26 01:02:57;;;;;;;6.87;2.93;;;16.40;99.90;;;;;;5096421;28;20236;-84
2023/07/26 01:05:31;;;;;;;4.73;3.10;;;16.40;99.90;;;;;;5077460;28;20188;-82
2023/07/26 01:08:34;;;;;;;5.13;3.37;;;16.40;99.90;;;;;;5077862;28;20168;-83
2023/07/26 01:11:08;;;;;;;5.67;3.00;;;16.30;99.90;;;;;;5075909;28;20186;-83
2023/07/26 01:13:50;;;;;;;5.47;3.20;;;16.30;99.90;;;;;;5095823;28;20194;-83
2023/07/26 01:16:16;;;;;;;4.80;3.23;;;16.30;99.90;;;;;;5077501;28;20262;-83
2023/07/26 01:18:42;;;;;;;6.83;4.00;;;16.30;99.90;;;;;;5077132;28;20298;-82
2023/07/26 01:21:07;;;;;;;5.63;3.93;;;16.30;99.90;;;;;;5095832;28;20262;-83
2023/07/26 01:23:35;;;;;;;5.70;3.50;;;16.30;99.90;;;;;;5095427;28;20218;-83
2023/07/26 01:26:00;;;;;;;6.87;4.10;;;16.50;99.90;;;;;;5077628;28;20182;-82
2023/07/26 01:28:26;;;;;;;7.10;3.90;;;16.30;99.90;;;;;;5095306;28;20257;-83
2023/07/26 01:30:52;;;;;;;7.23;3.90;;;16.40;99.90;;;;;;5077427;28;20276;-83
2023/07/26 01:33:20;;;;;;;4.73;3.60;;;16.20;99.90;;;;;;5077556;28;20530;-82
2023/07/26 01:35:47;;;;;;;7.03;3.93;;;16.20;99.90;;;;;;5077077;28;20174;-81
2023/07/26 01:38:14;;;;;;;6.73;3.67;;;16.20;99.90;;;;;;5095307;28;20199;-82
2023/07/26 01:40:41;;;;;;;5.60;3.87;;;16.20;99.90;;;;;;5077639;28;20274;-81
2023/07/26 01:43:07;;;;;;;7.10;4.43;;;16.10;99.90;;;;;;5081504;28;20176;-82
2023/07/26 01:45:32;;;;;;;5.43;4.10;;;16.20;99.90;;;;;;5100672;28;20180;-82
2023/07/26 01:47:58;;;;;;;6.10;4.00;;;16.20;99.90;;;;;;5100087;28;20167;-81
2023/07/26 01:50:26;;;;;;;8.00;4.20;;;16.20;99.90;;;;;;5086781;28;20186;-84
2023/07/26 01:52:55;;;;;;;6.57;4.00;;;16.20;99.90;;;;;;5078717;28;20264;-83
2023/07/26 01:55:20;;;;;;;7.97;4.10;;;16.30;99.90;;;;;;5095604;28;20555;-83
2023/07/26 01:57:46;;;;;;;7.40;3.87;;;16.30;99.90;;;;;;5095420;28;20218;-81
2023/07/26 02:00:12;;;;;;;7.87;4.23;;;16.20;99.90;;;;;;5077590;28;20223;-82
2023/07/26 02:02:37;;;;;;;8.10;4.20;;;16.20;99.90;;;;;;5076471;28;20722;-81
2023/07/26 02:05:03;;;;;;;5.37;3.90;;;16.20;99.90;;;;;;5080358;28;20265;-80
2023/07/26 02:07:29;;;;;;;6.43;4.30;;;16.20;99.90;;;;;;5080208;28;20251;-80
2023/07/26 02:09:55;;;;;;;7.70;4.20;;;16.20;99.90;;;;;;5095673;28;20267;-82
2023/07/26 02:12:21;;;;;;;6.93;3.90;;;16.30;99.90;;;;;;5076339;28;20171;-82
2023/07/26 02:14:47;;;;;;;7.13;4.30;;;16.20;99.90;;;;;;5095165;28;20172;-83
2023/07/26 02:17:13;;;;;;;6.43;4.63;;;16.10;99.90;;;;;;5094516;28;20221;-82
2023/07/26 02:19:38;;;;;;;5.77;4.33;;;16.00;99.90;;;;;;5076103;28;20695;-83
2023/07/26 02:22:04;;;;;;;7.37;4.63;;;16.00;99.90;;;;;;5094526;28;20169;-82
2023/07/26 02:24:30;;;;;;;6.93;4.10;;;16.10;99.90;;;;;;5076362;28;20175;-83
2023/07/26 02:26:56;;;;;;;8.43;4.50;;;16.00;99.90;;;;;;5076427;28;20605;-82
2023/07/26 02:29:22;;;;;;;6.90;4.83;;;16.00;99.90;;;;;;5094521;28;20229;-82
2023/07/26 02:31:48;;;;;;;6.50;4.67;;;15.90;99.90;;;;;;5075929;28;20215;-82
2023/07/26 02:34:13;;;;;;;7.67;5.07;;;16.00;99.90;;;;;;5076437;28;20175;-82
2023/07/26 02:36:39;;;;;;;5.80;4.60;;;16.10;99.90;;;;;;5076247;28;20267;-81
2023/07/26 02:39:05;;;;;;;7.93;5.17;;;16.00;99.90;;;;;;5076100;28;20215;-82
2023/07/26 02:41:30;;;;;;;6.10;4.90;;;16.00;99.90;;;;;;5076033;28;20169;-83
2023/07/26 02:43:56;;;;;;;8.27;5.57;;;16.00;99.90;;;;;;5076009;28;20172;-82
2023/07/26 02:46:21;;;;;;;9.40;5.73;;;16.10;99.90;;;;;;5075880;28;20229;-83
2023/07/26 02:48:47;;;;;;;9.00;5.87;;;16.30;99.90;;;;;;5093744;28;20652;-83
2023/07/26 02:51:13;;;;;;;7.57;5.37;;;16.20;99.90;;;;;;5076175;28;20190;-81
2023/07/26 02:53:38;;;;;;;7.17;5.37;;;16.30;99.90;;;;;;5094062;28;20191;-82
2023/07/26 02:56:04;;;;;;;7.57;5.47;;;16.20;99.90;;;;;;5075830;28;20262;-82
2023/07/26 02:58:30;;;;;;;10.13;5.47;;;16.20;99.90;;;;;;5075513;28;20198;-83
2023/07/26 03:00:56;;;;;;;8.23;5.20;;;16.10;99.90;;;;;;5075378;28;20183;-82
2023/07/26 03:03:21;;;;;;;7.33;5.40;;;16.00;99.90;;;;;;5075642;28;20209;-83
2023/07/26 03:05:47;;;;;;;9.50;5.37;;;16.20;99.90;;;;;;5075905;28;20182;-82
2023/07/26 03:08:13;;;;;;;8.33;5.47;;;16.20;99.90;;;;;;5075279;28;20626;-82
2023/07/26 03:10:39;;;;;;;10.13;5.93;;;16.00;99.90;;;;;;5093742;28;20206;-82
2023/07/26 03:13:04;;;;;;;11.13;6.07;;;15.90;99.90;;;;;;5075017;28;20203;-83
2023/07/26 03:15:30;;;;;;;9.07;5.47;;;15.80;99.90;;;;;;5075334;28;20529;-83
2023/07/26 03:17:56;;;;;;;8.53;6.07;;;15.90;99.90;;;;;;5075181;28;20175;-81
2023/07/26 03:20:22;;;;;;;10.43;6.30;;;15.80;99.90;;;;;;5075360;28;20235;-82
2023/07/26 03:22:47;;;;;;;8.47;5.87;;;15.70;99.90;;;;;;5075300;28;20612;-81
2023/07/26 03:25:13;;;;;;;7.90;5.60;;;15.70;99.90;;;;;;5092936;28;20175;-82
2023/07/26 03:27:38;;;;;;;10.43;5.67;;;15.70;99.90;;;;;;5093528;28;20173;-82
2023/07/26 03:30:05;;;;;;;10.10;6.03;;;15.90;99.90;;;;;;5074749;28;20715;-81
2023/07/26 03:32:30;;;;;;;9.87;6.07;;;15.70;99.90;;;;;;5074990;28;20176;-82
2023/07/26 03:34:56;;;;;;;12.20;6.23;;;15.60;99.90;;;;;;5075176;28;20185;-82
2023/07/26 03:37:22;;;;;;;10.03;6.40;;;15.60;99.90;;;;;;5075047;28;20183;-81
2023/07/26 03:39:47;;;;;;;11.00;6.60;;;15.80;99.90;;;;;;5093259;28;20203;-82
2023/07/26 03:42:13;;;;;;;10.13;6.20;;;15.80;99.90;;;;;;5075117;28;20533;-82
2023/07/26 03:44:38;;;;;;;9.93;6.43;;;15.90;99.90;;;;;;5093288;28;20178;-82
2023/07/26 03:47:04;;;;;;;12.87;6.53;;;15.90;99.90;;;;;;5075007;28;20176;-82
2023/07/26 03:49:30;;;;;;;14.83;7.10;;;15.80;99.90;;;;;;5075037;28;20191;-82
2023/07/26 03:51:56;;;;;;;8.30;6.17;;;15.90;99.90;;;;;;5075270;28;20177;-83
2023/07/26 03:54:21;;;;;;;8.73;5.87;;;16.00;99.90;;;;;;5074649;28;20213;-82
2023/07/26 03:56:47;;;;;;;11.87;6.37;;;15.80;99.90;;;;;;5074790;28;20308;-82
2023/07/26 03:59:13;;;;;;;10.10;6.50;;;15.90;99.90;;;;;;5077930;28;20210;-82
2023/07/26 04:01:38;;;;;;;11.50;6.47;;;15.80;99.90;;;;;;5117549;28;20222;-82
2023/07/26 04:04:04;;;;;;;8.93;6.27;;;15.80;99.90;;;;;;5097657;28;20223;-82
2023/07/26 04:06:30;;;;;;;10.67;7.03;;;15.80;99.90;;;;;;5101985;28;20168;-82
2023/07/26 04:08:58;;;;;;;12.13;6.27;;;15.80;99.90;;;;;;5075801;28;20180;-82
2023/07/26 04:11:24;;;;;;;9.77;6.57;;;15.80;99.90;;;;;;5075035;28;20172;-82
2023/07/26 04:13:49;;;;;;;9.33;6.33;;;15.60;99.90;;;;;;5091495;28;20202;-82
2023/07/26 04:16:19;;;;;;;10.37;6.40;;;15.60;99.90;;;;;;5092803;28;20170;-82
2023/07/26 04:18:46;;;;;;;10.07;6.20;;;15.60;99.90;;;;;;5092389;28;20205;-83
2023/07/26 04:21:16;;;;;;;11.00;6.90;;;15.60;99.90;;;;;;5074587;28;20620;-81
2023/07/26 04:23:42;;;;;;;14.87;6.50;;;15.60;99.90;;;;;;5074610;28;20194;-82
2023/07/26 04:26:08;;;;;;;12.00;6.60;;;15.60;99.90;;;;;;5092734;28;20182;-82
2023/07/26 04:28:33;;;;;;;13.13;7.13;;;15.70;99.90;;;;;;5074088;28;20194;-81
2023/07/26 04:30:59;;;;;;;11.93;6.13;;;15.70;99.90;;;;;;5092447;28;20180;-82
2023/07/26 04:33:25;;;;;;;10.77;6.63;;;15.60;99.90;;;;;;5074483;28;20171;-82
2023/07/26 04:35:51;;;;;;;9.60;6.37;;;15.50;99.90;;;;;;5076555;28;20252;-81
2023/07/26 04:38:19;;;;;;;14.10;6.47;;;15.50;99.90;;;;;;5077053;28;20186;-83
2023/07/26 04:40:47;;;;;;;15.20;6.70;;;15.50;99.90;;;;;;5078127;28;20666;-82
2023/07/26 04:43:16;;;;;;;11.43;6.67;;;15.50;99.90;;;;;;5096581;28;20164;-82
2023/07/26 04:45:42;;;;;;;9.70;6.30;;;15.40;99.90;;;;;;5096779;28;20203;-82
2023/07/26 04:48:08;;;;;;;11.27;6.30;;;15.60;99.90;;;;;;5096765;28;20244;-83
2023/07/26 04:50:34;;;;;;;8.27;5.93;;;15.60;99.90;;;;;;5077940;28;20175;-82
2023/07/26 04:52:59;;;;;;;10.77;6.23;;;15.60;99.90;;;;;;5078374;28;20234;-82
2023/07/26 04:55:25;;;;;;;12.87;6.60;;;15.70;99.90;;;;;;5078117;28;20667;-81
2023/07/26 04:57:50;;;;;;;10.23;6.40;;;15.60;99.90;;;;;;5078066;28;20225;-82
2023/07/26 05:00:16;;;;;;;8.93;6.07;;;15.60;99.90;;;;;;5077922;28;20199;-81
2023/07/26 05:02:42;;;;;;;12.30;6.00;;;15.70;99.90;;;;;;5078504;28;20186;-82
2023/07/26 05:05:08;;;;;;;10.47;6.40;;;15.70;99.90;;;;;;5078184;28;20172;-81
2023/07/26 05:07:33;;;;;;;9.80;5.67;;;15.70;99.90;;;;;;5096297;28;20629;-81
2023/07/26 05:09:59;;;;;;;10.67;6.10;;;15.70;99.90;;;;;;5095574;28;20178;-81
2023/07/26 05:12:25;;;;;;;11.43;6.77;;;15.70;99.90;;;;;;5077723;28;20162;-81
2023/07/26 05:14:50;;;;;;;10.87;6.57;;;15.80;99.90;;;;;;5077594;28;20180;-80
2023/07/26 05:17:16;;;;;;;10.43;5.83;;;15.70;99.90;;;;;;5077598;28;20185;-81
2023/07/26 05:19:42;;;;;;;8.77;6.00;;;15.80;99.90;;;;;;5096012;28;20571;-82
2023/07/26 05:22:08;;;;;;;11.03;6.07;;;15.80;99.90;;;;;;5077856;28;20663;-81
2023/07/26 05:24:34;;;;;;;11.47;6.00;;;15.80;99.90;;;;;;5077735;28;20262;-80
2023/07/26 05:26:59;;;;;;;10.87;6.27;;;16.00;99.90;;;;;;5096059;28;20730;-81
2023/07/26 05:29:25;;;;;;;10.87;6.57;;;16.00;99.90;;;;;;5077840;28;20676;-83
2023/07/26 05:31:51;;;;;;;14.10;6.07;;;16.30;99.90;;;;;;5077893;28;20174;-86
2023/07/26 05:34:18;;;;;;;9.83;5.43;;;16.30;99.90;;;;;;5077650;28;20170;-84
2023/07/26 05:36:44;;;;;;;11.30;6.63;;;16.20;99.90;;;;;;5077572;28;20169;-84
2023/07/26 05:39:10;;;;;;;14.17;6.17;;;16.20;99.90;;;;;;5077267;28;20595;-84
2023/07/26 05:41:35;;;;;;;13.30;6.63;;;16.40;99.90;;;;;;5075699;28;20173;-81
2023/07/26 05:44:01;;;;;;;10.73;5.40;;;16.30;99.90;;;;;;5076404;28;20208;-82
2023/07/26 05:46:27;;;;;;;14.33;5.77;;;16.30;99.90;;;;;;5076224;28;20164;-83
2023/07/26 05:48:52;;;;;;;12.00;6.37;;;16.20;99.90;;;;;;5075202;28;20193;-82
2023/07/26 05:51:18;;;;;;;14.40;5.60;;;16.10;99.90;;;;;;5076680;28;20338;-82
2023/07/26 05:53:43;;;;;;;10.87;6.73;;;16.20;99.90;;;;;;5075794;28;20225;-83
2023/07/26 05:56:10;;;;;;;7.73;5.60;;;16.10;99.90;;;;;;5077406;28;20173;-82
2023/07/26 05:58:36;;;;;;;14.73;6.37;;;16.10;99.90;;;;;;5076647;28;22076;-83
2023/07/26 06:01:01;;;;;;;12.93;6.37;;;16.20;99.90;;;;;;5076970;28;20245;-83
2023/07/26 06:03:27;;;;;;;11.70;5.83;;;16.20;99.90;;;;;;5076092;28;20179;-85
2023/07/26 06:05:52;;;;;;;11.97;6.43;;;16.10;99.90;;;;;;5077185;28;20264;-83
2023/07/26 06:08:19;;;;;;;10.83;6.00;;;16.00;99.90;;;;;;5076605;28;20175;-83
2023/07/26 06:10:44;;;;;;;13.87;6.50;;;16.10;99.90;;;;;;5077063;28;20179;-82
2023/07/26 06:13:12;;;;;;;12.50;6.10;;;16.30;99.90;;;;;;5076823;28;20199;-81
2023/07/26 06:15:41;;;;;;;13.13;6.17;;;16.30;99.90;;;;;;5080745;28;20172;-82
2023/07/26 06:18:07;;;;;;;10.70;6.47;;;16.30;99.90;;;;;;5118020;28;20176;-81
2023/07/26 06:20:34;;;;;;;9.13;6.97;;;16.40;99.90;;;;;;5099342;28;20223;-81
2023/07/26 06:23:06;;;;;;;11.27;6.63;;;16.40;99.90;;;;;;5102659;28;20183;-83
2023/07/26 06:25:35;;;;;;;9.67;6.57;;;16.50;99.90;;;;;;5077537;28;20207;-82
2023/07/26 06:28:01;;;;;;;11.57;6.83;;;16.40;99.90;;;;;;5094695;28;20173;-83
2023/07/26 06:30:26;;;;;;;9.43;6.10;;;16.40;99.90;;;;;;5076370;28;20519;-82
2023/07/26 06:32:52;;;;;;;12.63;6.23;;;16.60;99.90;;;;;;5076554;28;20184;-81
2023/07/26 06:35:17;;;;;;;11.10;5.70;;;16.70;99.90;;;;;;5076976;28;20173;-83
2023/07/26 06:37:43;;;;;;;12.83;6.03;;;16.80;99.90;;;;;;5076577;28;20179;-82
2023/07/26 06:40:09;;;;;;;10.63;6.00;;;16.90;99.90;;;;;;5076341;28;20574;-83
2023/07/26 06:42:36;;;;;;;12.67;6.47;;;16.90;99.90;;;;;;5076210;28;20262;-82
2023/07/26 06:45:02;;;;;;;9.03;6.03;;;17.10;99.90;;;;;;5076257;28;20664;-82
2023/07/26 06:47:27;;;;;;;7.63;5.33;;;17.00;99.90;;;;;;5075897;28;20651;-82
2023/07/26 06:49:53;;;;;;;12.50;5.83;;;16.90;99.90;;;;;;5075980;28;20203;-83
2023/07/26 06:52:18;;;;;;;11.40;5.07;;;17.20;99.90;;;;;;5076013;28;20171;-83
2023/07/26 06:54:44;;;;;;;13.13;5.67;;;17.20;99.90;;;;;;5075981;28;20171;-82
2023/07/26 06:57:10;;;;;;;10.23;5.60;;;17.30;99.90;;;;;;5076025;28;20229;-82
2023/07/26 06:59:36;;;;;;;12.00;5.77;;;17.30;99.90;;;;;;5074943;28;20212;-82
2023/07/26 07:02:03;;;;;;;11.00;5.30;;;17.50;99.90;;;;;;5075848;28;20203;-83
2023/07/26 07:04:29;;;;;;;8.40;4.80;;;17.60;99.90;;;;;;5076429;28;20180;-81
2023/07/26 07:06:54;;;;;;;9.90;5.27;;;17.70;99.90;;;;;;5075591;28;20181;-82
2023/07/26 07:09:20;;;;;;;9.23;5.60;;;17.90;99.90;;;;;;5075625;28;20178;-83
2023/07/26 07:11:46;;;;;;;12.67;5.60;;;17.90;99.90;;;;;;5075882;28;20262;-83
2023/07/26 07:14:11;;;;;;;10.20;4.90;;;17.90;99.90;;;;;;5075838;28;20662;-83
2023/07/26 07:16:37;;;;;;;6.83;4.87;;;17.90;99.90;;;;;;5075701;28;20573;-82
2023/07/26 07:19:03;;;;;;;7.57;5.17;;;17.90;99.90;;;;;;5075402;28;20203;-82
2023/07/26 07:21:29;;;;;;;11.03;4.77;;;17.90;99.90;;;;;;5075414;28;20212;-82
2023/07/26 07:23:55;;;;;;;11.57;4.87;;;17.80;99.90;;;;;;5075514;28;20178;-83
2023/07/26 07:26:21;;;;;;;8.83;4.83;;;17.90;99.90;;;;;;5075124;28;20494;-84
2023/07/26 07:28:47;;;;;;;8.17;4.67;;;17.90;99.90;;;;;;5075064;28;20185;-83
2023/07/26 07:31:12;;;;;;;8.33;4.63;;;17.90;99.90;;;;;;5075345;28;20652;-82
2023/07/26 07:33:38;;;;;;;10.53;4.83;;;17.70;99.90;;;;;;5074942;28;20271;-82
2023/07/26 07:36:04;;;;;;;7.63;4.90;;;17.60;99.90;;;;;;5074911;28;20176;-83
2023/07/26 07:38:31;;;;;;;11.30;4.90;;;17.70;99.90;;;;;;5075236;28;20214;-83
2023/07/26 07:40:56;;;;;;;9.40;5.13;;;18.00;99.90;;;;;;5074936;28;20178;-83
2023/07/26 07:43:22;;;;;;;8.53;4.67;;;17.90;99.90;;;;;;5075019;28;20174;-83
2023/07/26 07:45:48;;;;;;;7.93;4.53;;;18.00;99.90;;;;;;5075188;28;20171;-82
2023/07/26 07:48:13;;;;;;;8.30;4.23;;;18.20;99.90;;;;;;5075076;28;20720;-82
2023/07/26 07:50:39;;;;;;;7.07;4.80;;;18.30;99.90;;;;;;5075254;28;20172;-82
2023/07/26 07:53:05;;;;;;;8.53;5.00;;;18.30;99.90;;;;;;5074761;28;20648;-82
2023/07/26 07:55:31;;;;;;;8.00;4.53;;;18.40;99.90;;;;;;5074879;28;20751;-82
2023/07/26 07:58:01;;;;;;;7.87;4.90;;;18.50;99.90;;;;;;5093052;28;20164;-82
2023/07/26 08:00:26;;;;;;;5.27;4.43;;;18.50;99.90;;;;;;5074652;28;20211;-83
2023/07/26 08:02:52;;;;;;;9.23;4.17;;;18.20;99.90;;;;;;5093252;28;20176;-82
2023/07/26 08:05:18;;;;;;;6.40;3.73;;;18.20;99.90;;;;;;5074575;28;20538;-82
2023/07/26 08:07:44;;;;;;;7.10;3.97;;;18.30;99.90;;;;;;5075065;28;20286;-83
2023/07/26 08:10:09;;;;;;;7.07;4.93;;;18.30;99.90;;;;;;5074837;28;20168;-82
2023/07/26 08:12:37;;;;;;;5.90;4.27;;;18.20;99.90;;;;;;5075572;28;20193;-84
2023/07/26 08:15:03;;;;;;;6.23;3.80;;;18.30;99.90;;;;;;5100090;28;20370;-83
2023/07/26 08:17:29;;;;;;;5.27;3.43;;;18.40;99.90;;;;;;5079933;28;20171;-83
2023/07/26 08:19:54;;;;;;;7.17;4.27;;;18.30;99.90;;;;;;5078504;28;20219;-83
2023/07/26 08:22:20;;;;;;;6.60;4.40;;;18.40;99.90;;;;;;5075298;28;20629;-83
2023/07/26 08:24:46;;;;;;;6.47;3.90;;;18.30;99.90;;;;;;5076338;28;20184;-82
2023/07/26 08:27:11;;;;;;;5.93;3.83;;;18.40;99.90;;;;;;5075381;28;20174;-84
2023/07/26 08:29:37;;;;;;;6.90;4.17;;;18.50;99.90;;;;;;5074847;28;20184;-82
2023/07/26 08:32:04;;;;;;;7.53;4.50;;;18.40;99.90;;;;;;5101079;28;20186;-82
2023/07/26 08:34:30;;;;;;;7.63;4.20;;;18.40;99.90;;;;;;5095726;28;20596;-81
2023/07/26 08:36:55;;;;;;;6.63;4.03;;;18.60;99.90;;;;;;5091453;28;20156;-80
2023/07/26 08:39:21;;;;;;;7.97;4.30;;;18.90;99.90;;;;;;5077224;28;20308;-82
2023/07/26 08:41:50;;;;;;;5.93;3.90;;;19.00;99.90;;;;;;5075861;28;20194;-81
2023/07/26 08:44:16;;;;;;;6.83;4.27;;;19.20;99.90;;;;;;5076677;28;20168;-82
2023/07/26 08:46:45;;;;;;;7.10;3.80;;;19.10;99.90;;;;;;5074260;28;20164;-81
2023/07/26 08:49:12;;;;;;;7.53;3.97;;;19.00;99.90;;;;;;5074816;28;20623;-80
2023/07/26 08:51:40;;;;;;;6.90;3.80;;;19.20;99.90;;;;;;5077013;28;20171;-83
2023/07/26 08:54:06;;;;;;;5.77;3.87;;;19.20;99.90;;;;;;5093481;28;20176;-82
2023/07/26 08:56:32;;;;;;;5.40;3.50;;;19.20;99.90;;;;;;5075360;28;20178;-83
2023/07/26 08:58:59;;;;;;;5.40;3.50;;;19.00;99.90;;;;;;5075178;28;20195;-84
2023/07/26 09:01:26;;;;;;;7.53;3.50;;;19.00;99.90;;;;;;5092052;28;20264;-85
2023/07/26 09:03:52;;;;;;;6.97;3.73;;;19.20;99.90;;;;;;5074187;28;20165;-83
2023/07/26 09:06:19;;;;;;;6.57;3.83;;;19.30;99.90;;;;;;5092384;28;20178;-82
2023/07/26 09:08:46;;;;;;;7.13;3.73;;;19.40;99.90;;;;;;5074356;28;20224;-81
2023/07/26 09:11:26;;;;;;;5.90;3.27;;;19.40;99.90;;;;;;5074404;28;20196;-83
2023/07/26 09:13:59;;;;;;;5.03;3.47;;;19.60;99.90;;;;;;5074584;28;20192;-81
2023/07/26 09:16:30;;;;;;;4.90;3.30;;;19.40;99.90;;;;;;5073764;28;20168;-82
2023/07/26 09:19:04;;;;;;;7.40;4.40;;;19.40;99.90;;;;;;5074599;28;20249;-81
2023/07/26 09:21:37;;;;;;;5.33;4.23;;;19.40;99.90;;;;;;5074491;28;20539;-82
2023/07/26 09:24:04;;;;;;;6.13;3.57;;;19.60;99.90;;;;;;5096200;28;20168;-82
2023/07/26 09:26:37;;;;;;;6.47;4.00;;;19.60;99.90;;;;;;5077943;28;20170;-83
2023/07/26 09:29:10;;;;;;;13.03;4.20;;;19.60;99.90;;;;;;5097758;28;20324;-82
2023/07/26 09:31:38;;;;;;;4.87;3.60;;;19.70;99.90;;;;;;5080770;28;20265;-83
2023/07/26 09:34:06;;;;;;;5.63;3.80;;;19.90;99.90;;;;;;5080281;28;20541;-82
2023/07/26 09:36:47;;;;;;;4.97;3.47;;;19.90;99.90;;;;;;5078767;28;20172;-83
2023/07/26 09:39:14;;;;;;;5.50;3.37;;;20.10;99.90;;;;;;5082640;28;20206;-81
2023/07/26 09:41:40;;;;;;;7.30;3.83;;;20.10;99.90;;;;;;5083381;28;20182;-82
2023/07/26 09:44:16;;;;;;;7.07;3.20;;;20.20;99.90;;;;;;5081289;28;20191;-82
2023/07/26 09:47:08;;;;;;;6.27;3.30;;;20.10;99.90;;;;;;5078306;28;20248;-83
2023/07/26 09:49:34;;;;;;;6.07;3.57;;;19.90;99.90;;;;;;5076468;28;20183;-82
2023/07/26 09:52:01;;;;;;;6.53;3.40;;;19.80;99.90;;;;;;5081329;28;20174;-82
2023/07/26 09:54:29;;;;;;;8.40;4.00;;;19.60;99.90;;;;;;5084818;28;20169;-83
2023/07/26 09:56:56;;;;;;;5.40;3.60;;;19.60;99.90;;;;;;5096380;28;20164;-83
2023/07/26 09:59:25;;;;;;;5.50;3.70;;;19.70;99.90;;;;;;5076906;28;20230;-82
2023/07/26 10:01:52;;;;;;;5.07;3.53;;;19.80;99.90;;;;;;5076086;28;20683;-83
2023/07/26 10:04:35;;;;;;;7.07;3.60;;;19.90;99.90;;;;;;5062173;28;20213;-83
2023/07/26 10:07:04;;;;;;;5.57;3.50;;;20.10;99.90;;;;;;5074548;28;20172;-83
2023/07/26 10:09:33;;;;;;;7.97;3.43;;;20.30;99.90;;;;;;5075106;28;20168;-83
2023/07/26 10:12:02;;;;;;;4.80;3.60;;;20.30;99.90;;;;;;5040197;28;20259;-81
2023/07/26 10:14:31;;;;;;;5.73;3.00;;;20.30;99.90;;;;;;5072892;28;20195;-83
2023/07/26 10:16:58;;;;;;;5.40;3.00;;;20.40;99.90;;;;;;5056722;28;20552;-83
2023/07/26 10:19:28;;;;;;;4.47;2.93;;;20.60;99.90;;;;;;5074674;28;20222;-82
2023/07/26 10:21:56;;;;;;;4.27;3.03;;;20.80;99.90;;;;;;5058302;28;20177;-83
2023/07/26 10:24:23;;;;;;;4.53;3.00;;;20.90;99.90;;;;;;5062961;28;20172;-84
2023/07/26 10:26:51;;;;;;;4.37;3.13;;;20.70;99.90;;;;;;5063076;28;20292;-83
2023/07/26 10:29:19;;;;;;;5.73;3.70;;;20.70;99.90;;;;;;5068483;28;20234;-83
2023/07/26 10:31:46;;;;;;;4.97;2.97;;;20.60;99.90;;;;;;5058968;28;20523;-83
2023/07/26 10:34:21;;;;;;;4.33;3.23;;;20.60;99.90;;;;;;5091801;28;20218;-82
2023/07/26 10:36:47;;;;;;;6.17;3.53;;;20.60;99.90;;;;;;5057543;28;20175;-83
2023/07/26 10:39:14;;;;;;;6.47;3.10;;;20.60;99.90;;;;;;5056911;28;20200;-82
2023/07/26 10:41:50;;;;;;;5.07;2.70;;;20.80;99.90;;;;;;5056252;28;20180;-82
2023/07/26 10:44:16;;;;;;;4.33;2.77;;;21.00;99.90;;;;;;5055937;28;20213;-83
2023/07/26 10:46:52;;;;;;;7.63;3.17;;;21.00;99.90;;;;;;5059042;28;20629;-83
2023/07/26 10:49:26;;;;;;;6.20;3.03;;;21.00;99.90;;;;;;5075753;28;20193;-83
2023/07/26 10:51:57;;;;;;;5.10;3.00;;;20.70;99.90;;;;;;5073959;28;20202;-82
2023/07/26 10:54:45;;;;;;;4.17;2.80;;;20.50;99.90;;;;;;5062090;28;20259;-83
2023/07/26 10:57:31;;;;;;;4.73;3.03;;;20.20;99.90;;;;;;5076350;28;20245;-84
2023/07/26 11:00:04;;;;;;;4.60;2.73;;;20.20;99.90;;;;;;5079155;28;20325;-84
2023/07/26 11:02:59;;;;;;;4.70;3.20;;;20.10;99.90;;;;;;5058574;28;20202;-83
2023/07/26 11:05:26;;;;;;;6.27;2.90;;;20.00;99.90;;;;;;5056966;28;20182;-83
2023/07/26 11:08:06;;;;;;;5.27;3.00;;;19.90;99.90;;;;;;5056999;28;20271;-83
2023/07/26 11:10:51;;;;;;;5.87;3.43;;;19.90;99.90;;;;;;5057791;28;20176;-83
2023/07/26 11:13:28;;;;;;;4.10;3.10;;;19.90;99.90;;;;;;5058206;28;20234;-83
2023/07/26 11:15:54;;;;;;;6.80;3.10;;;20.00;99.90;;;;;;5055813;28;20184;-83
2023/07/26 11:18:21;;;;;;;5.77;3.70;;;20.20;99.90;;;;;;5073124;28;20712;-84
2023/07/26 11:20:49;;;;;;;5.50;3.60;;;20.20;99.90;;;;;;5055497;28;20778;-83
2023/07/26 11:23:20;;;;;;;5.97;3.50;;;20.20;99.90;;;;;;5055744;28;20539;-84
2023/07/26 11:25:51;;;;;;;6.90;3.43;;;20.30;99.90;;;;;;5073818;28;20176;-83
2023/07/26 11:28:17;;;;;;;5.83;3.10;;;20.50;99.90;;;;;;5054896;28;20180;-84
2023/07/26 11:30:48;;;;;;;8.60;3.60;;;20.60;99.90;;;;;;5054861;28;20184;-83
2023/07/26 11:33:26;;;;;;;5.80;3.67;;;20.50;99.90;;;;;;5055156;28;20171;-83
2023/07/26 11:35:51;;;;;;;6.17;3.77;;;20.60;99.90;;;;;;5072854;28;20179;-83
2023/07/26 11:38:17;;;;;;;4.90;3.50;;;20.80;99.90;;;;;;5073136;28;20172;-83
2023/07/26 11:40:43;;;;;;;4.70;3.10;;;20.80;99.90;;;;;;5073269;28;20207;-83
2023/07/26 11:43:10;;;;;;;5.97;3.53;;;21.00;99.90;;;;;;5073231;28;20168;-81
2023/07/26 11:45:37;;;;;;;5.27;3.50;;;21.00;99.90;;;;;;5054683;28;20235;-83
2023/07/26 11:48:09;;;;;;;7.67;3.70;;;21.00;99.90;;;;;;5055064;28;20172;-83
2023/07/26 11:50:35;;;;;;;8.13;3.80;;;20.80;99.90;;;;;;5054841;28;20548;-83
2023/07/26 11:53:05;;;;;;;7.60;3.83;;;20.90;99.90;;;;;;5054828;28;20625;-83
2023/07/26 11:55:34;;;;;;;15.03;4.30;;;20.70;99.90;;;;;;5055003;28;20176;-82
2023/07/26 11:58:04;;;;;;;7.00;3.63;;;20.80;99.90;;;;;;5054837;28;20182;-83
2023/07/26 12:00:32;;;;;;;7.23;3.63;;;21.00;99.90;;;;;;5055270;28;20223;-82
2023/07/26 12:03:00;;;;;;;5.70;3.90;;;21.10;99.90;;;;;;5054866;28;20647;-83
2023/07/26 12:05:27;;;;;;;5.33;3.40;;;21.20;99.90;;;;;;5054776;28;20543;-82
2023/07/26 12:07:56;;;;;;;5.63;3.20;;;21.20;99.90;;;;;;5055034;28;20177;-82
2023/07/26 12:10:32;;;;;;;5.43;3.30;;;21.30;99.90;;;;;;5072526;28;20255;-82
2023/07/26 12:12:59;;;;;;;4.57;3.53;;;21.50;99.90;;;;;;5054901;28;20223;-83
2023/07/26 12:15:25;;;;;;;13.40;3.90;;;21.50;99.90;;;;;;5072585;28;20177;-85
2023/07/26 12:18:03;;;;;;;12.53;4.03;;;21.60;99.90;;;;;;5054823;28;20173;-83
2023/07/26 12:20:30;;;;;;;4.57;3.20;;;21.60;99.90;;;;;;5054743;28;20218;-82
2023/07/26 12:23:02;;;;;;;10.00;3.60;;;21.70;99.90;;;;;;5054954;28;20218;-83
2023/07/26 12:25:36;;;;;;;5.50;3.43;;;21.80;99.90;;;;;;5072482;28;20167;-82
2023/07/26 12:28:04;;;;;;;5.43;3.27;;;21.90;99.90;;;;;;5054642;28;20184;-83
2023/07/26 12:30:30;;;;;;;5.30;3.37;;;21.90;99.90;;;;;;5054254;28;20240;-82
2023/07/26 12:33:10;;;;;;;8.13;3.17;;;21.70;99.90;;;;;;5055289;28;20169;-83
2023/07/26 12:35:37;;;;;;;4.57;3.00;;;21.50;99.90;;;;;;5072526;28;20175;-82
2023/07/26 12:38:12;;;;;;;5.10;3.30;;;21.50;99.90;;;;;;5054612;28;20630;-82
2023/07/26 12:40:39;;;;;;;6.83;3.23;;;21.50;99.90;;;;;;5072315;28;20203;-82
2023/07/26 12:43:30;;;;;;;3.80;2.90;;;21.40;99.90;;;;;;5054650;28;20269;-82
2023/07/26 12:46:00;;;;;;;3.50;2.77;;;21.40;99.90;;;;;;5054644;28;20665;-83